sensor_id;sensor_type;location;lat;lon;timestamp;P1;durP1;ratioP1;P2;durP2;ratioP2
22794;SDS011;11564;50.920;11.612;2023-04-24T00:00:03;1.60;;;1.50;;
22794;SDS011;11564;50.920;11.612;2023-04-24T00:02:34;1.63;;;1.53;;
22794;SDS011;11564;50.920;11.612;2023-04-24T00:05:02;2.73;;;1.83;;
22794;SDS011;11564;50.920;11.612;2023-04-24T00:07:29;1.47;;;1.37;;
22794;SDS011;11564;50.920;11.612;2023-04-24T00:09:55;2.07;;;1.73;;
22794;SDS011;11564;50.920;11.612;2023-04-24T00:12:21;3.27;;;1.87;;
22794;SDS011;11564;50.920;11.612;2023-04-24T00:14:46;3.13;;;1.80;;
22794;SDS011;11564;50.920;11.612;2023-04-24T00:17:12;2.20;;;2.00;;
22794;SDS011;11564;50.920;11.612;2023-04-24T00:19:38;1.97;;;1.80;;
22794;SDS011;11564;50.920;11.612;2023-04-24T00:22:03;4.00;;;2.03;;
22794;SDS011;11564;50.920;11.612;2023-04-24T00:24:30;1.77;;;1.67;;
22794;SDS011;11564;50.920;11.612;2023-04-24T00:26:56;1.60;;;1.50;;
22794;SDS011;11564;50.920;11.612;2023-04-24T00:29:21;3.00;;;1.50;;
22794;SDS011;11564;50.920;11.612;2023-04-24T00:31:47;2.40;;;1.63;;
22794;SDS011;11564;50.920;11.612;2023-04-24T00:34:13;2.40;;;1.33;;
22794;SDS011;11564;50.920;11.612;2023-04-24T00:36:38;1.60;;;1.50;;
22794;SDS011;11564;50.920;11.612;2023-04-24T00:39:05;1.53;;;1.20;;
22794;SDS011;11564;50.920;11.612;2023-04-24T00:41:33;2.63;;;1.57;;
22794;SDS011;11564;50.920;11.612;2023-04-24T00:43:59;3.73;;;1.20;;
22794;SDS011;11564;50.920;11.612;2023-04-24T00:46:25;3.33;;;1.03;;
22794;SDS011;11564;50.920;11.612;2023-04-24T00:48:51;3.00;;;1.13;;
22794;SDS011;11564;50.920;11.612;2023-04-24T00:51:17;1.70;;;1.30;;
22794;SDS011;11564;50.920;11.612;2023-04-24T00:53:43;4.27;;;1.40;;
22794;SDS011;11564;50.920;11.612;2023-04-24T00:56:08;2.60;;;1.07;;
22794;SDS011;11564;50.920;11.612;2023-04-24T00:58:34;1.20;;;1.10;;
22794;SDS011;11564;50.920;11.612;2023-04-24T01:01:01;4.30;;;1.10;;
22794;SDS011;11564;50.920;11.612;2023-04-24T01:03:28;1.10;;;1.00;;
22794;SDS011;11564;50.920;11.612;2023-04-24T01:05:57;3.73;;;1.03;;
22794;SDS011;11564;50.920;11.612;2023-04-24T01:08:23;4.93;;;0.70;;
22794;SDS011;11564;50.920;11.612;2023-04-24T01:10:51;0.80;;;0.70;;
22794;SDS011;11564;50.920;11.612;2023-04-24T01:13:17;0.87;;;0.87;;
22794;SDS011;11564;50.920;11.612;2023-04-24T01:15:44;1.33;;;0.80;;
22794;SDS011;11564;50.920;11.612;2023-04-24T01:18:10;0.83;;;0.83;;
22794;SDS011;11564;50.920;11.612;2023-04-24T01:20:36;1.77;;;1.03;;
22794;SDS011;11564;50.920;11.612;2023-04-24T01:23:05;1.47;;;1.00;;
22794;SDS011;11564;50.920;11.612;2023-04-24T01:25:31;1.10;;;1.10;;
22794;SDS011;11564;50.920;11.612;2023-04-24T01:27:58;2.70;;;1.07;;
22794;SDS011;11564;50.920;11.612;2023-04-24T01:30:24;1.43;;;0.83;;
22794;SDS011;11564;50.920;11.612;2023-04-24T01:32:50;2.60;;;0.70;;
22794;SDS011;11564;50.920;11.612;2023-04-24T01:35:16;2.90;;;0.90;;
22794;SDS011;11564;50.920;11.612;2023-04-24T01:37:43;5.40;;;1.00;;
22794;SDS011;11564;50.920;11.612;2023-04-24T01:40:09;1.27;;;0.90;;
22794;SDS011;11564;50.920;11.612;2023-04-24T01:42:35;0.80;;;0.80;;
22794;SDS011;11564;50.920;11.612;2023-04-24T01:45:01;1.43;;;1.00;;
22794;SDS011;11564;50.920;11.612;2023-04-24T01:47:29;0.90;;;0.80;;
22794;SDS011;11564;50.920;11.612;2023-04-24T01:49:56;2.13;;;0.97;;
22794;SDS011;11564;50.920;11.612;2023-04-24T01:52:22;1.60;;;1.07;;
22794;SDS011;11564;50.920;11.612;2023-04-24T01:54:48;1.50;;;0.60;;
22794;SDS011;11564;50.920;11.612;2023-04-24T01:57:14;1.60;;;1.03;;
22794;SDS011;11564;50.920;11.612;2023-04-24T01:59:40;1.00;;;0.90;;
22794;SDS011;11564;50.920;11.612;2023-04-24T02:02:05;1.57;;;1.07;;
22794;SDS011;11564;50.920;11.612;2023-04-24T02:04:31;0.93;;;0.93;;
22794;SDS011;11564;50.920;11.612;2023-04-24T02:06:57;0.83;;;0.80;;
22794;SDS011;11564;50.920;11.612;2023-04-24T02:09:22;0.90;;;0.90;;
22794;SDS011;11564;50.920;11.612;2023-04-24T02:11:48;5.50;;;1.90;;
22794;SDS011;11564;50.920;11.612;2023-04-24T02:14:14;6.73;;;1.00;;
22794;SDS011;11564;50.920;11.612;2023-04-24T02:16:39;1.33;;;0.90;;
22794;SDS011;11564;50.920;11.612;2023-04-24T02:19:05;0.77;;;0.77;;
22794;SDS011;11564;50.920;11.612;2023-04-24T02:21:31;1.07;;;0.93;;
22794;SDS011;11564;50.920;11.612;2023-04-24T02:23:57;2.23;;;0.90;;
22794;SDS011;11564;50.920;11.612;2023-04-24T02:26:22;1.70;;;1.20;;
22794;SDS011;11564;50.920;11.612;2023-04-24T02:28:48;1.30;;;0.90;;
22794;SDS011;11564;50.920;11.612;2023-04-24T02:31:14;3.20;;;0.93;;
22794;SDS011;11564;50.920;11.612;2023-04-24T02:33:40;0.97;;;0.90;;
22794;SDS011;11564;50.920;11.612;2023-04-24T02:36:05;1.23;;;1.00;;
22794;SDS011;11564;50.920;11.612;2023-04-24T02:38:31;0.90;;;0.90;;
22794;SDS011;11564;50.920;11.612;2023-04-24T02:40:57;1.13;;;1.07;;
22794;SDS011;11564;50.920;11.612;2023-04-24T02:43:22;0.97;;;0.93;;
22794;SDS011;11564;50.920;11.612;2023-04-24T02:45:48;0.70;;;0.70;;
22794;SDS011;11564;50.920;11.612;2023-04-24T02:48:14;1.27;;;1.17;;
22794;SDS011;11564;50.920;11.612;2023-04-24T02:50:40;3.47;;;0.90;;
22794;SDS011;11564;50.920;11.612;2023-04-24T02:53:06;10.60;;;0.90;;
22794;SDS011;11564;50.920;11.612;2023-04-24T02:55:31;1.30;;;0.93;;
22794;SDS011;11564;50.920;11.612;2023-04-24T02:57:57;1.40;;;1.30;;
22794;SDS011;11564;50.920;11.612;2023-04-24T03:00:23;1.73;;;1.20;;
22794;SDS011;11564;50.920;11.612;2023-04-24T03:02:49;1.50;;;1.40;;
22794;SDS011;11564;50.920;11.612;2023-04-24T03:05:15;1.30;;;1.20;;
22794;SDS011;11564;50.920;11.612;2023-04-24T03:07:40;1.63;;;1.53;;
22794;SDS011;11564;50.920;11.612;2023-04-24T03:10:06;1.53;;;1.20;;
22794;SDS011;11564;50.920;11.612;2023-04-24T03:12:32;1.40;;;1.30;;
22794;SDS011;11564;50.920;11.612;2023-04-24T03:14:58;1.27;;;1.17;;
22794;SDS011;11564;50.920;11.612;2023-04-24T03:17:24;3.23;;;1.30;;
22794;SDS011;11564;50.920;11.612;2023-04-24T03:19:50;2.90;;;1.33;;
22794;SDS011;11564;50.920;11.612;2023-04-24T03:22:15;1.50;;;1.40;;
22794;SDS011;11564;50.920;11.612;2023-04-24T03:24:41;2.90;;;1.50;;
22794;SDS011;11564;50.920;11.612;2023-04-24T03:27:07;2.50;;;1.40;;
22794;SDS011;11564;50.920;11.612;2023-04-24T03:29:34;1.63;;;1.30;;
22794;SDS011;11564;50.920;11.612;2023-04-24T03:31:59;1.80;;;1.20;;
22794;SDS011;11564;50.920;11.612;2023-04-24T03:34:25;1.50;;;1.20;;
22794;SDS011;11564;50.920;11.612;2023-04-24T03:36:51;1.50;;;1.40;;
22794;SDS011;11564;50.920;11.612;2023-04-24T03:39:17;4.67;;;1.30;;
22794;SDS011;11564;50.920;11.612;2023-04-24T03:41:43;3.27;;;1.30;;
22794;SDS011;11564;50.920;11.612;2023-04-24T03:44:08;1.67;;;1.57;;
22794;SDS011;11564;50.920;11.612;2023-04-24T03:46:34;4.03;;;1.60;;
22794;SDS011;11564;50.920;11.612;2023-04-24T03:49:00;2.20;;;1.53;;
22794;SDS011;11564;50.920;11.612;2023-04-24T03:51:25;1.57;;;1.47;;
22794;SDS011;11564;50.920;11.612;2023-04-24T03:53:53;1.73;;;1.60;;
22794;SDS011;11564;50.920;11.612;2023-04-24T03:56:18;1.87;;;1.47;;
22794;SDS011;11564;50.920;11.612;2023-04-24T03:58:45;2.07;;;1.70;;
22794;SDS011;11564;50.920;11.612;2023-04-24T04:01:11;1.80;;;1.67;;
22794;SDS011;11564;50.920;11.612;2023-04-24T04:03:37;6.30;;;1.90;;
22794;SDS011;11564;50.920;11.612;2023-04-24T04:06:02;2.20;;;1.67;;
22794;SDS011;11564;50.920;11.612;2023-04-24T04:08:28;1.60;;;1.50;;
22794;SDS011;11564;50.920;11.612;2023-04-24T04:10:53;2.10;;;1.63;;
22794;SDS011;11564;50.920;11.612;2023-04-24T04:13:19;1.37;;;1.27;;
22794;SDS011;11564;50.920;11.612;2023-04-24T04:15:45;1.87;;;1.70;;
22794;SDS011;11564;50.920;11.612;2023-04-24T04:18:11;2.20;;;1.90;;
22794;SDS011;11564;50.920;11.612;2023-04-24T04:20:36;2.70;;;1.73;;
22794;SDS011;11564;50.920;11.612;2023-04-24T04:23:02;2.30;;;1.97;;
22794;SDS011;11564;50.920;11.612;2023-04-24T04:25:27;3.70;;;2.10;;
22794;SDS011;11564;50.920;11.612;2023-04-24T04:27:54;3.47;;;1.80;;
22794;SDS011;11564;50.920;11.612;2023-04-24T04:30:19;2.47;;;1.57;;
22794;SDS011;11564;50.920;11.612;2023-04-24T04:32:45;3.87;;;1.97;;
22794;SDS011;11564;50.920;11.612;2023-04-24T04:35:11;3.67;;;2.40;;
22794;SDS011;11564;50.920;11.612;2023-04-24T04:37:37;8.07;;;1.93;;
22794;SDS011;11564;50.920;11.612;2023-04-24T04:40:03;9.53;;;2.20;;
22794;SDS011;11564;50.920;11.612;2023-04-24T04:42:31;2.63;;;2.43;;
22794;SDS011;11564;50.920;11.612;2023-04-24T04:44:59;8.00;;;3.13;;
22794;SDS011;11564;50.920;11.612;2023-04-24T04:47:25;2.53;;;2.33;;
22794;SDS011;11564;50.920;11.612;2023-04-24T04:49:53;1.90;;;1.80;;
22794;SDS011;11564;50.920;11.612;2023-04-24T04:52:19;2.00;;;1.90;;
22794;SDS011;11564;50.920;11.612;2023-04-24T04:54:49;2.30;;;2.10;;
22794;SDS011;11564;50.920;11.612;2023-04-24T04:57:15;1.83;;;1.73;;
22794;SDS011;11564;50.920;11.612;2023-04-24T04:59:40;2.63;;;2.10;;
22794;SDS011;11564;50.920;11.612;2023-04-24T05:02:06;4.20;;;2.10;;
22794;SDS011;11564;50.920;11.612;2023-04-24T05:04:32;1.63;;;1.53;;
22794;SDS011;11564;50.920;11.612;2023-04-24T05:06:57;5.80;;;1.63;;
22794;SDS011;11564;50.920;11.612;2023-04-24T05:09:23;1.87;;;1.23;;
22794;SDS011;11564;50.920;11.612;2023-04-24T05:11:52;2.00;;;1.73;;
22794;SDS011;11564;50.920;11.612;2023-04-24T05:14:18;1.53;;;1.43;;
22794;SDS011;11564;50.920;11.612;2023-04-24T05:16:44;1.10;;;1.03;;
22794;SDS011;11564;50.920;11.612;2023-04-24T05:19:09;1.87;;;1.30;;
22794;SDS011;11564;50.920;11.612;2023-04-24T05:21:36;5.37;;;1.20;;
22794;SDS011;11564;50.920;11.612;2023-04-24T05:24:04;2.03;;;1.37;;
22794;SDS011;11564;50.920;11.612;2023-04-24T05:26:30;3.50;;;1.00;;
22794;SDS011;11564;50.920;11.612;2023-04-24T05:28:56;1.23;;;1.00;;
22794;SDS011;11564;50.920;11.612;2023-04-24T05:31:22;8.53;;;1.57;;
22794;SDS011;11564;50.920;11.612;2023-04-24T05:33:47;3.43;;;1.23;;
22794;SDS011;11564;50.920;11.612;2023-04-24T05:36:13;1.60;;;1.00;;
22794;SDS011;11564;50.920;11.612;2023-04-24T05:38:39;2.37;;;0.83;;
22794;SDS011;11564;50.920;11.612;2023-04-24T05:41:05;2.60;;;0.80;;
22794;SDS011;11564;50.920;11.612;2023-04-24T05:43:30;3.63;;;1.30;;
22794;SDS011;11564;50.920;11.612;2023-04-24T05:45:56;1.03;;;0.70;;
22794;SDS011;11564;50.920;11.612;2023-04-24T05:48:22;1.00;;;0.73;;
22794;SDS011;11564;50.920;11.612;2023-04-24T05:50:47;1.67;;;1.20;;
22794;SDS011;11564;50.920;11.612;2023-04-24T05:53:13;1.13;;;0.90;;
22794;SDS011;11564;50.920;11.612;2023-04-24T05:55:39;1.43;;;0.70;;
22794;SDS011;11564;50.920;11.612;2023-04-24T05:58:04;1.37;;;1.00;;
22794;SDS011;11564;50.920;11.612;2023-04-24T06:00:31;1.37;;;0.97;;
22794;SDS011;11564;50.920;11.612;2023-04-24T06:02:57;0.70;;;0.70;;
22794;SDS011;11564;50.920;11.612;2023-04-24T06:05:23;1.07;;;0.97;;
22794;SDS011;11564;50.920;11.612;2023-04-24T06:07:49;5.17;;;1.10;;
22794;SDS011;11564;50.920;11.612;2023-04-24T06:10:15;1.07;;;0.70;;
22794;SDS011;11564;50.920;11.612;2023-04-24T06:12:41;1.47;;;0.90;;
22794;SDS011;11564;50.920;11.612;2023-04-24T06:15:07;0.87;;;0.77;;
22794;SDS011;11564;50.920;11.612;2023-04-24T06:17:33;0.97;;;0.70;;
22794;SDS011;11564;50.920;11.612;2023-04-24T06:19:58;3.47;;;0.87;;
22794;SDS011;11564;50.920;11.612;2023-04-24T06:22:24;1.33;;;0.60;;
22794;SDS011;11564;50.920;11.612;2023-04-24T06:24:49;1.00;;;0.60;;
22794;SDS011;11564;50.920;11.612;2023-04-24T06:27:15;0.90;;;0.70;;
22794;SDS011;11564;50.920;11.612;2023-04-24T06:29:41;3.33;;;0.80;;
22794;SDS011;11564;50.920;11.612;2023-04-24T06:32:06;0.87;;;0.83;;
22794;SDS011;11564;50.920;11.612;2023-04-24T06:34:32;1.93;;;0.70;;
22794;SDS011;11564;50.920;11.612;2023-04-24T06:36:59;1.77;;;0.60;;
22794;SDS011;11564;50.920;11.612;2023-04-24T06:39:25;1.33;;;0.90;;
22794;SDS011;11564;50.920;11.612;2023-04-24T06:41:50;0.70;;;0.60;;
22794;SDS011;11564;50.920;11.612;2023-04-24T06:44:16;1.30;;;0.60;;
22794;SDS011;11564;50.920;11.612;2023-04-24T06:46:42;0.93;;;0.57;;
22794;SDS011;11564;50.920;11.612;2023-04-24T06:49:07;2.30;;;0.90;;
22794;SDS011;11564;50.920;11.612;2023-04-24T06:51:33;0.97;;;0.70;;
22794;SDS011;11564;50.920;11.612;2023-04-24T06:53:59;1.57;;;0.60;;
22794;SDS011;11564;50.920;11.612;2023-04-24T06:56:25;2.20;;;0.50;;
22794;SDS011;11564;50.920;11.612;2023-04-24T06:58:51;4.23;;;0.87;;
22794;SDS011;11564;50.920;11.612;2023-04-24T07:01:17;2.40;;;0.60;;
22794;SDS011;11564;50.920;11.612;2023-04-24T07:03:42;2.83;;;0.60;;
22794;SDS011;11564;50.920;11.612;2023-04-24T07:06:08;0.70;;;0.50;;
22794;SDS011;11564;50.920;11.612;2023-04-24T07:08:36;1.63;;;0.53;;
22794;SDS011;11564;50.920;11.612;2023-04-24T07:11:01;2.60;;;0.80;;
22794;SDS011;11564;50.920;11.612;2023-04-24T07:13:27;0.73;;;0.50;;
22794;SDS011;11564;50.920;11.612;2023-04-24T07:15:53;0.90;;;0.80;;
22794;SDS011;11564;50.920;11.612;2023-04-24T07:18:21;5.70;;;0.60;;
22794;SDS011;11564;50.920;11.612;2023-04-24T07:20:46;1.00;;;0.60;;
22794;SDS011;11564;50.920;11.612;2023-04-24T07:23:12;1.40;;;0.67;;
22794;SDS011;11564;50.920;11.612;2023-04-24T07:25:38;1.50;;;0.70;;
22794;SDS011;11564;50.920;11.612;2023-04-24T07:28:05;4.30;;;0.70;;
22794;SDS011;11564;50.920;11.612;2023-04-24T07:30:30;1.10;;;0.70;;
22794;SDS011;11564;50.920;11.612;2023-04-24T07:32:57;3.23;;;0.87;;
22794;SDS011;11564;50.920;11.612;2023-04-24T07:35:23;1.57;;;0.80;;
22794;SDS011;11564;50.920;11.612;2023-04-24T07:37:50;1.53;;;0.70;;
22794;SDS011;11564;50.920;11.612;2023-04-24T07:40:17;0.90;;;0.60;;
22794;SDS011;11564;50.920;11.612;2023-04-24T07:42:43;0.60;;;0.50;;
22794;SDS011;11564;50.920;11.612;2023-04-24T07:45:09;2.40;;;0.53;;
22794;SDS011;11564;50.920;11.612;2023-04-24T07:47:35;1.33;;;0.63;;
22794;SDS011;11564;50.920;11.612;2023-04-24T07:50:02;1.33;;;0.50;;
22794;SDS011;11564;50.920;11.612;2023-04-24T07:52:28;2.40;;;0.57;;
22794;SDS011;11564;50.920;11.612;2023-04-24T07:54:54;0.70;;;0.70;;
22794;SDS011;11564;50.920;11.612;2023-04-24T07:57:23;2.10;;;0.50;;
22794;SDS011;11564;50.920;11.612;2023-04-24T07:59:50;5.83;;;0.77;;
22794;SDS011;11564;50.920;11.612;2023-04-24T08:02:15;2.40;;;0.80;;
22794;SDS011;11564;50.920;11.612;2023-04-24T08:04:41;6.83;;;0.63;;
22794;SDS011;11564;50.920;11.612;2023-04-24T08:07:07;2.93;;;0.50;;
22794;SDS011;11564;50.920;11.612;2023-04-24T08:09:33;1.00;;;0.60;;
22794;SDS011;11564;50.920;11.612;2023-04-24T08:11:58;1.33;;;0.60;;
22794;SDS011;11564;50.920;11.612;2023-04-24T08:14:24;0.70;;;0.60;;
22794;SDS011;11564;50.920;11.612;2023-04-24T08:16:50;1.00;;;0.60;;
22794;SDS011;11564;50.920;11.612;2023-04-24T08:19:17;1.03;;;0.50;;
22794;SDS011;11564;50.920;11.612;2023-04-24T08:21:43;1.57;;;0.63;;
22794;SDS011;11564;50.920;11.612;2023-04-24T08:24:08;2.93;;;0.77;;
22794;SDS011;11564;50.920;11.612;2023-04-24T08:26:34;0.70;;;0.60;;
22794;SDS011;11564;50.920;11.612;2023-04-24T08:28:59;7.13;;;1.27;;
22794;SDS011;11564;50.920;11.612;2023-04-24T08:31:25;2.40;;;0.70;;
22794;SDS011;11564;50.920;11.612;2023-04-24T08:33:51;2.00;;;0.73;;
22794;SDS011;11564;50.920;11.612;2023-04-24T08:36:17;1.07;;;0.60;;
22794;SDS011;11564;50.920;11.612;2023-04-24T08:38:42;1.00;;;0.60;;
22794;SDS011;11564;50.920;11.612;2023-04-24T08:41:08;0.70;;;0.60;;
22794;SDS011;11564;50.920;11.612;2023-04-24T08:43:34;1.13;;;0.63;;
22794;SDS011;11564;50.920;11.612;2023-04-24T08:46:03;1.00;;;0.90;;
22794;SDS011;11564;50.920;11.612;2023-04-24T08:48:29;1.07;;;0.70;;
22794;SDS011;11564;50.920;11.612;2023-04-24T08:50:56;1.17;;;0.60;;
22794;SDS011;11564;50.920;11.612;2023-04-24T08:53:24;1.33;;;0.57;;
22794;SDS011;11564;50.920;11.612;2023-04-24T08:55:50;3.70;;;0.40;;
22794;SDS011;11564;50.920;11.612;2023-04-24T08:58:18;1.50;;;0.73;;
22794;SDS011;11564;50.920;11.612;2023-04-24T09:00:44;2.00;;;0.80;;
22794;SDS011;11564;50.920;11.612;2023-04-24T09:03:13;2.33;;;0.70;;
22794;SDS011;11564;50.920;11.612;2023-04-24T09:05:41;2.10;;;0.70;;
22794;SDS011;11564;50.920;11.612;2023-04-24T09:08:12;1.00;;;0.57;;
22794;SDS011;11564;50.920;11.612;2023-04-24T09:10:39;1.57;;;0.57;;
22794;SDS011;11564;50.920;11.612;2023-04-24T09:13:05;1.73;;;0.70;;
22794;SDS011;11564;50.920;11.612;2023-04-24T09:15:31;1.87;;;0.60;;
22794;SDS011;11564;50.920;11.612;2023-04-24T09:17:56;0.77;;;0.53;;
22794;SDS011;11564;50.920;11.612;2023-04-24T09:20:22;0.83;;;0.73;;
22794;SDS011;11564;50.920;11.612;2023-04-24T09:22:48;0.60;;;0.60;;
22794;SDS011;11564;50.920;11.612;2023-04-24T09:25:19;0.90;;;0.67;;
22794;SDS011;11564;50.920;11.612;2023-04-24T09:27:46;0.80;;;0.70;;
22794;SDS011;11564;50.920;11.612;2023-04-24T09:30:12;0.70;;;0.50;;
22794;SDS011;11564;50.920;11.612;2023-04-24T09:32:38;0.83;;;0.60;;
22794;SDS011;11564;50.920;11.612;2023-04-24T09:35:05;1.37;;;0.70;;
22794;SDS011;11564;50.920;11.612;2023-04-24T09:37:34;0.60;;;0.50;;
22794;SDS011;11564;50.920;11.612;2023-04-24T09:40:15;1.13;;;0.70;;
22794;SDS011;11564;50.920;11.612;2023-04-24T09:42:52;0.73;;;0.70;;
22794;SDS011;11564;50.920;11.612;2023-04-24T09:45:18;1.90;;;0.47;;
22794;SDS011;11564;50.920;11.612;2023-04-24T09:47:45;4.07;;;0.80;;
22794;SDS011;11564;50.920;11.612;2023-04-24T09:50:11;0.87;;;0.50;;
22794;SDS011;11564;50.920;11.612;2023-04-24T09:52:42;1.10;;;1.00;;
22794;SDS011;11564;50.920;11.612;2023-04-24T09:55:19;0.90;;;0.80;;
22794;SDS011;11564;50.920;11.612;2023-04-24T10:00:19;2.00;;;0.70;;
22794;SDS011;11564;50.920;11.612;2023-04-24T10:03:00;0.70;;;0.70;;
22794;SDS011;11564;50.920;11.612;2023-04-24T10:05:31;3.87;;;0.90;;
22794;SDS011;11564;50.920;11.612;2023-04-24T10:08:02;0.80;;;0.80;;
22794;SDS011;11564;50.920;11.612;2023-04-24T10:10:39;4.23;;;0.87;;
22794;SDS011;11564;50.920;11.612;2023-04-24T10:13:07;2.80;;;0.63;;
22794;SDS011;11564;50.920;11.612;2023-04-24T10:15:34;1.43;;;0.70;;
22794;SDS011;11564;50.920;11.612;2023-04-24T10:18:00;2.40;;;0.80;;
22794;SDS011;11564;50.920;11.612;2023-04-24T10:20:27;0.50;;;0.50;;
22794;SDS011;11564;50.920;11.612;2023-04-24T10:22:55;1.17;;;0.93;;
22794;SDS011;11564;50.920;11.612;2023-04-24T10:25:28;0.70;;;0.70;;
22794;SDS011;11564;50.920;11.612;2023-04-24T10:27:56;0.70;;;0.60;;
22794;SDS011;11564;50.920;11.612;2023-04-24T10:30:25;1.13;;;0.70;;
22794;SDS011;11564;50.920;11.612;2023-04-24T10:32:55;1.47;;;0.93;;
22794;SDS011;11564;50.920;11.612;2023-04-24T10:35:21;1.07;;;0.80;;
22794;SDS011;11564;50.920;11.612;2023-04-24T10:37:51;3.47;;;0.80;;
22794;SDS011;11564;50.920;11.612;2023-04-24T10:40:39;0.70;;;0.60;;
22794;SDS011;11564;50.920;11.612;2023-04-24T10:43:05;1.40;;;0.80;;
22794;SDS011;11564;50.920;11.612;2023-04-24T10:45:33;1.87;;;0.70;;
22794;SDS011;11564;50.920;11.612;2023-04-24T10:48:01;1.10;;;0.97;;
22794;SDS011;11564;50.920;11.612;2023-04-24T10:50:29;0.90;;;0.80;;
22794;SDS011;11564;50.920;11.612;2023-04-24T10:53:07;0.93;;;0.73;;
22794;SDS011;11564;50.920;11.612;2023-04-24T10:55:41;0.70;;;0.60;;
22794;SDS011;11564;50.920;11.612;2023-04-24T10:58:15;2.87;;;1.13;;
22794;SDS011;11564;50.920;11.612;2023-04-24T11:00:42;0.60;;;0.50;;
22794;SDS011;11564;50.920;11.612;2023-04-24T11:03:26;6.93;;;0.80;;
22794;SDS011;11564;50.920;11.612;2023-04-24T11:05:57;0.90;;;0.70;;
22794;SDS011;11564;50.920;11.612;2023-04-24T11:08:24;1.10;;;0.80;;
22794;SDS011;11564;50.920;11.612;2023-04-24T11:11:08;1.03;;;0.80;;
22794;SDS011;11564;50.920;11.612;2023-04-24T11:16:29;1.27;;;0.60;;
22794;SDS011;11564;50.920;11.612;2023-04-24T11:22:02;0.67;;;0.63;;
22794;SDS011;11564;50.920;11.612;2023-04-24T11:29:41;1.90;;;0.80;;
22794;SDS011;11564;50.920;11.612;2023-04-24T11:32:30;1.30;;;0.63;;
22794;SDS011;11564;50.920;11.612;2023-04-24T11:35:00;2.70;;;0.67;;
22794;SDS011;11564;50.920;11.612;2023-04-24T11:37:33;0.50;;;0.40;;
22794;SDS011;11564;50.920;11.612;2023-04-24T11:40:04;1.77;;;0.80;;
22794;SDS011;11564;50.920;11.612;2023-04-24T11:42:37;1.30;;;0.77;;
22794;SDS011;11564;50.920;11.612;2023-04-24T11:45:08;3.07;;;0.83;;
22794;SDS011;11564;50.920;11.612;2023-04-24T11:47:35;0.70;;;0.60;;
22794;SDS011;11564;50.920;11.612;2023-04-24T11:50:01;0.97;;;0.73;;
22794;SDS011;11564;50.920;11.612;2023-04-24T11:52:28;0.63;;;0.63;;
22794;SDS011;11564;50.920;11.612;2023-04-24T11:54:55;1.03;;;0.50;;
22794;SDS011;11564;50.920;11.612;2023-04-24T11:57:21;0.60;;;0.50;;
22794;SDS011;11564;50.920;11.612;2023-04-24T11:59:49;0.57;;;0.47;;
22794;SDS011;11564;50.920;11.612;2023-04-24T12:04:47;1.57;;;0.70;;
22794;SDS011;11564;50.920;11.612;2023-04-24T12:07:13;15.30;;;0.80;;
22794;SDS011;11564;50.920;11.612;2023-04-24T12:09:45;0.80;;;0.70;;
22794;SDS011;11564;50.920;11.612;2023-04-24T12:12:13;0.63;;;0.63;;
22794;SDS011;11564;50.920;11.612;2023-04-24T12:14:51;1.23;;;0.90;;
22794;SDS011;11564;50.920;11.612;2023-04-24T12:17:23;4.97;;;0.90;;
22794;SDS011;11564;50.920;11.612;2023-04-24T12:19:57;2.47;;;0.70;;
22794;SDS011;11564;50.920;11.612;2023-04-24T12:22:24;0.70;;;0.70;;
22794;SDS011;11564;50.920;11.612;2023-04-24T12:24:57;0.80;;;0.70;;
22794;SDS011;11564;50.920;11.612;2023-04-24T12:27:35;0.63;;;0.63;;
22794;SDS011;11564;50.920;11.612;2023-04-24T12:30:02;1.33;;;0.47;;
22794;SDS011;11564;50.920;11.612;2023-04-24T12:32:30;2.03;;;0.63;;
22794;SDS011;11564;50.920;11.612;2023-04-24T12:34:57;0.57;;;0.50;;
22794;SDS011;11564;50.920;11.612;2023-04-24T12:37:26;0.80;;;0.70;;
22794;SDS011;11564;50.920;11.612;2023-04-24T12:40:01;0.70;;;0.70;;
22794;SDS011;11564;50.920;11.612;2023-04-24T12:42:41;0.70;;;0.70;;
22794;SDS011;11564;50.920;11.612;2023-04-24T12:45:08;0.63;;;0.60;;
22794;SDS011;11564;50.920;11.612;2023-04-24T12:47:34;0.60;;;0.60;;
22794;SDS011;11564;50.920;11.612;2023-04-24T12:50:01;2.47;;;0.50;;
22794;SDS011;11564;50.920;11.612;2023-04-24T12:52:28;0.80;;;0.60;;
22794;SDS011;11564;50.920;11.612;2023-04-24T12:54:58;1.53;;;1.00;;
22794;SDS011;11564;50.920;11.612;2023-04-24T12:57:25;0.60;;;0.60;;
22794;SDS011;11564;50.920;11.612;2023-04-24T12:59:53;0.70;;;0.70;;
22794;SDS011;11564;50.920;11.612;2023-04-24T13:02:21;0.90;;;0.60;;
22794;SDS011;11564;50.920;11.612;2023-04-24T13:04:47;0.70;;;0.70;;
22794;SDS011;11564;50.920;11.612;2023-04-24T13:07:13;0.97;;;0.90;;
22794;SDS011;11564;50.920;11.612;2023-04-24T13:09:40;0.80;;;0.80;;
22794;SDS011;11564;50.920;11.612;2023-04-24T13:12:06;3.53;;;0.70;;
22794;SDS011;11564;50.920;11.612;2023-04-24T13:14:33;1.47;;;0.60;;
22794;SDS011;11564;50.920;11.612;2023-04-24T13:16:58;1.00;;;0.90;;
22794;SDS011;11564;50.920;11.612;2023-04-24T13:19:25;1.00;;;0.90;;
22794;SDS011;11564;50.920;11.612;2023-04-24T13:21:51;5.33;;;1.00;;
22794;SDS011;11564;50.920;11.612;2023-04-24T13:24:18;2.70;;;0.70;;
22794;SDS011;11564;50.920;11.612;2023-04-24T13:26:43;3.47;;;0.80;;
22794;SDS011;11564;50.920;11.612;2023-04-24T13:29:09;1.07;;;1.00;;
22794;SDS011;11564;50.920;11.612;2023-04-24T13:31:35;1.43;;;0.60;;
22794;SDS011;11564;50.920;11.612;2023-04-24T13:34:01;0.80;;;0.80;;
22794;SDS011;11564;50.920;11.612;2023-04-24T13:36:28;0.60;;;0.60;;
22794;SDS011;11564;50.920;11.612;2023-04-24T13:38:54;0.90;;;0.70;;
22794;SDS011;11564;50.920;11.612;2023-04-24T13:41:19;1.00;;;1.00;;
22794;SDS011;11564;50.920;11.612;2023-04-24T13:43:45;1.30;;;1.10;;
22794;SDS011;11564;50.920;11.612;2023-04-24T13:46:10;1.43;;;0.80;;
22794;SDS011;11564;50.920;11.612;2023-04-24T13:48:36;1.93;;;1.10;;
22794;SDS011;11564;50.920;11.612;2023-04-24T13:51:02;0.87;;;0.87;;
22794;SDS011;11564;50.920;11.612;2023-04-24T13:53:28;1.07;;;0.90;;
22794;SDS011;11564;50.920;11.612;2023-04-24T13:55:53;0.87;;;0.87;;
22794;SDS011;11564;50.920;11.612;2023-04-24T13:58:19;1.10;;;0.80;;
22794;SDS011;11564;50.920;11.612;2023-04-24T14:00:45;0.80;;;0.57;;
22794;SDS011;11564;50.920;11.612;2023-04-24T14:03:12;0.80;;;0.53;;
22794;SDS011;11564;50.920;11.612;2023-04-24T14:05:37;1.10;;;0.80;;
22794;SDS011;11564;50.920;11.612;2023-04-24T14:08:03;6.00;;;0.80;;
22794;SDS011;11564;50.920;11.612;2023-04-24T14:10:29;0.70;;;0.60;;
22794;SDS011;11564;50.920;11.612;2023-04-24T14:12:55;0.80;;;0.50;;
22794;SDS011;11564;50.920;11.612;2023-04-24T14:15:20;0.70;;;0.50;;
22794;SDS011;11564;50.920;11.612;2023-04-24T14:17:47;0.50;;;0.30;;
22794;SDS011;11564;50.920;11.612;2023-04-24T14:20:13;0.57;;;0.40;;
22794;SDS011;11564;50.920;11.612;2023-04-24T14:22:39;0.60;;;0.40;;
22794;SDS011;11564;50.920;11.612;2023-04-24T14:25:05;0.50;;;0.40;;
22794;SDS011;11564;50.920;11.612;2023-04-24T14:27:31;0.60;;;0.40;;
22794;SDS011;11564;50.920;11.612;2023-04-24T14:29:57;0.60;;;0.40;;
22794;SDS011;11564;50.920;11.612;2023-04-24T14:32:23;2.30;;;0.30;;
22794;SDS011;11564;50.920;11.612;2023-04-24T14:34:48;3.27;;;0.40;;
22794;SDS011;11564;50.920;11.612;2023-04-24T14:37:14;0.50;;;0.30;;
22794;SDS011;11564;50.920;11.612;2023-04-24T14:39:40;1.50;;;0.50;;
22794;SDS011;11564;50.920;11.612;2023-04-24T14:42:06;0.50;;;0.30;;
22794;SDS011;11564;50.920;11.612;2023-04-24T14:44:31;0.50;;;0.33;;
22794;SDS011;11564;50.920;11.612;2023-04-24T14:46:58;0.60;;;0.40;;